sensor_id;sensor_type;location;lat;lon;timestamp;P1;durP1;ratioP1;P2;durP2;ratioP2
20040;SDS011;10181;48.072;9.884;2023-04-25T00:02:23;21.73;;;20.83;;
20040;SDS011;10181;48.072;9.884;2023-04-25T00:04:49;21.00;;;20.10;;
20040;SDS011;10181;48.072;9.884;2023-04-25T00:07:15;23.00;;;21.47;;
20040;SDS011;10181;48.072;9.884;2023-04-25T00:09:41;21.47;;;20.47;;
20040;SDS011;10181;48.072;9.884;2023-04-25T00:12:07;24.70;;;23.70;;
20040;SDS011;10181;48.072;9.884;2023-04-25T00:14:33;29.23;;;27.90;;
20040;SDS011;10181;48.072;9.884;2023-04-25T00:17:00;30.30;;;29.10;;
20040;SDS011;10181;48.072;9.884;2023-04-25T00:19:26;28.77;;;27.47;;
20040;SDS011;10181;48.072;9.884;2023-04-25T00:21:53;27.43;;;26.37;;
20040;SDS011;10181;48.072;9.884;2023-04-25T00:24:20;27.93;;;26.83;;
20040;SDS011;10181;48.072;9.884;2023-04-25T00:26:46;24.30;;;23.30;;
20040;SDS011;10181;48.072;9.884;2023-04-25T00:29:11;26.70;;;25.70;;
20040;SDS011;10181;48.072;9.884;2023-04-25T00:31:37;29.63;;;28.23;;
20040;SDS011;10181;48.072;9.884;2023-04-25T00:34:02;29.97;;;28.73;;
20040;SDS011;10181;48.072;9.884;2023-04-25T00:36:28;30.87;;;29.67;;
20040;SDS011;10181;48.072;9.884;2023-04-25T00:38:54;33.30;;;32.03;;
20040;SDS011;10181;48.072;9.884;2023-04-25T00:41:20;32.20;;;30.47;;
20040;SDS011;10181;48.072;9.884;2023-04-25T00:43:46;27.80;;;26.60;;
20040;SDS011;10181;48.072;9.884;2023-04-25T00:46:13;29.37;;;28.27;;
20040;SDS011;10181;48.072;9.884;2023-04-25T00:48:38;26.60;;;25.60;;
20040;SDS011;10181;48.072;9.884;2023-04-25T00:51:04;23.63;;;22.63;;
20040;SDS011;10181;48.072;9.884;2023-04-25T00:53:30;24.10;;;23.20;;
20040;SDS011;10181;48.072;9.884;2023-04-25T00:55:57;24.80;;;23.80;;
20040;SDS011;10181;48.072;9.884;2023-04-25T00:58:23;26.83;;;25.83;;
20040;SDS011;10181;48.072;9.884;2023-04-25T01:00:50;30.20;;;28.80;;
20040;SDS011;10181;48.072;9.884;2023-04-25T01:03:19;30.27;;;29.13;;
20040;SDS011;10181;48.072;9.884;2023-04-25T01:05:45;29.57;;;28.27;;
20040;SDS011;10181;48.072;9.884;2023-04-25T01:08:12;19.57;;;18.70;;
20040;SDS011;10181;48.072;9.884;2023-04-25T01:10:37;4.10;;;3.90;;
20040;SDS011;10181;48.072;9.884;2023-04-25T01:13:03;2.40;;;2.17;;
20040;SDS011;10181;48.072;9.884;2023-04-25T01:15:29;2.07;;;1.97;;
20040;SDS011;10181;48.072;9.884;2023-04-25T01:17:55;1.73;;;1.63;;
20040;SDS011;10181;48.072;9.884;2023-04-25T01:20:21;2.00;;;1.77;;
20040;SDS011;10181;48.072;9.884;2023-04-25T01:22:48;2.30;;;1.73;;
20040;SDS011;10181;48.072;9.884;2023-04-25T01:25:14;2.20;;;1.87;;
20040;SDS011;10181;48.072;9.884;2023-04-25T01:27:40;2.37;;;2.27;;
20040;SDS011;10181;48.072;9.884;2023-04-25T01:30:06;2.50;;;2.40;;
20040;SDS011;10181;48.072;9.884;2023-04-25T01:32:32;2.87;;;2.70;;
20040;SDS011;10181;48.072;9.884;2023-04-25T01:35:04;3.03;;;2.93;;
20040;SDS011;10181;48.072;9.884;2023-04-25T01:37:40;3.50;;;3.20;;
20040;SDS011;10181;48.072;9.884;2023-04-25T01:40:08;3.13;;;3.03;;
20040;SDS011;10181;48.072;9.884;2023-04-25T01:42:36;4.10;;;3.93;;
20040;SDS011;10181;48.072;9.884;2023-04-25T01:45:03;4.27;;;3.97;;
20040;SDS011;10181;48.072;9.884;2023-04-25T01:47:29;4.27;;;4.00;;
20040;SDS011;10181;48.072;9.884;2023-04-25T01:49:55;3.57;;;3.30;;
20040;SDS011;10181;48.072;9.884;2023-04-25T01:52:20;4.07;;;2.97;;
20040;SDS011;10181;48.072;9.884;2023-04-25T01:54:46;3.00;;;2.80;;
20040;SDS011;10181;48.072;9.884;2023-04-25T01:57:13;2.50;;;2.40;;
20040;SDS011;10181;48.072;9.884;2023-04-25T01:59:39;2.80;;;2.70;;
20040;SDS011;10181;48.072;9.884;2023-04-25T02:02:05;3.47;;;3.27;;
20040;SDS011;10181;48.072;9.884;2023-04-25T02:04:31;3.23;;;3.03;;
20040;SDS011;10181;48.072;9.884;2023-04-25T02:06:57;3.70;;;3.40;;
20040;SDS011;10181;48.072;9.884;2023-04-25T02:09:23;3.57;;;3.37;;
20040;SDS011;10181;48.072;9.884;2023-04-25T02:11:48;3.30;;;3.10;;
20040;SDS011;10181;48.072;9.884;2023-04-25T02:14:14;3.30;;;3.20;;
20040;SDS011;10181;48.072;9.884;2023-04-25T02:16:40;4.03;;;3.83;;
20040;SDS011;10181;48.072;9.884;2023-04-25T02:19:05;4.17;;;3.97;;
20040;SDS011;10181;48.072;9.884;2023-04-25T02:21:31;4.00;;;3.80;;
20040;SDS011;10181;48.072;9.884;2023-04-25T02:24:00;4.83;;;4.57;;
20040;SDS011;10181;48.072;9.884;2023-04-25T02:26:26;5.90;;;5.57;;
20040;SDS011;10181;48.072;9.884;2023-04-25T02:28:51;6.87;;;6.67;;
20040;SDS011;10181;48.072;9.884;2023-04-25T02:31:17;8.00;;;7.60;;
20040;SDS011;10181;48.072;9.884;2023-04-25T02:33:43;8.90;;;8.50;;
20040;SDS011;10181;48.072;9.884;2023-04-25T02:36:09;10.50;;;10.13;;
20040;SDS011;10181;48.072;9.884;2023-04-25T02:38:34;9.40;;;8.90;;
20040;SDS011;10181;48.072;9.884;2023-04-25T02:41:00;9.93;;;9.60;;
20040;SDS011;10181;48.072;9.884;2023-04-25T02:43:26;8.83;;;8.43;;
20040;SDS011;10181;48.072;9.884;2023-04-25T02:45:51;9.47;;;8.97;;
20040;SDS011;10181;48.072;9.884;2023-04-25T02:48:17;9.03;;;8.63;;
20040;SDS011;10181;48.072;9.884;2023-04-25T02:50:43;8.10;;;7.80;;
20040;SDS011;10181;48.072;9.884;2023-04-25T02:53:08;8.63;;;8.27;;
20040;SDS011;10181;48.072;9.884;2023-04-25T02:55:34;8.33;;;7.93;;
20040;SDS011;10181;48.072;9.884;2023-04-25T02:58:00;7.00;;;6.80;;
20040;SDS011;10181;48.072;9.884;2023-04-25T03:00:25;7.43;;;7.13;;
20040;SDS011;10181;48.072;9.884;2023-04-25T03:02:51;7.57;;;7.20;;
20040;SDS011;10181;48.072;9.884;2023-04-25T03:05:16;7.43;;;7.17;;
20040;SDS011;10181;48.072;9.884;2023-04-25T03:07:42;10.40;;;10.00;;
20040;SDS011;10181;48.072;9.884;2023-04-25T03:10:09;9.00;;;8.70;;
20040;SDS011;10181;48.072;9.884;2023-04-25T03:12:35;8.00;;;7.50;;
20040;SDS011;10181;48.072;9.884;2023-04-25T03:15:01;8.77;;;8.47;;
20040;SDS011;10181;48.072;9.884;2023-04-25T03:17:27;10.47;;;9.90;;
20040;SDS011;10181;48.072;9.884;2023-04-25T03:19:53;10.40;;;10.00;;
20040;SDS011;10181;48.072;9.884;2023-04-25T03:22:19;10.97;;;10.07;;
20040;SDS011;10181;48.072;9.884;2023-04-25T03:24:44;10.50;;;10.10;;
20040;SDS011;10181;48.072;9.884;2023-04-25T03:27:10;8.77;;;8.27;;
20040;SDS011;10181;48.072;9.884;2023-04-25T03:29:36;9.37;;;8.97;;
20040;SDS011;10181;48.072;9.884;2023-04-25T03:32:01;7.17;;;6.90;;
20040;SDS011;10181;48.072;9.884;2023-04-25T03:34:27;6.67;;;6.27;;
20040;SDS011;10181;48.072;9.884;2023-04-25T03:36:53;5.30;;;5.10;;
20040;SDS011;10181;48.072;9.884;2023-04-25T03:39:18;5.90;;;5.40;;
20040;SDS011;10181;48.072;9.884;2023-04-25T03:41:44;5.50;;;5.20;;
20040;SDS011;10181;48.072;9.884;2023-04-25T03:44:09;5.63;;;5.43;;
20040;SDS011;10181;48.072;9.884;2023-04-25T03:46:35;7.80;;;7.40;;
20040;SDS011;10181;48.072;9.884;2023-04-25T03:49:01;7.97;;;7.60;;
20040;SDS011;10181;48.072;9.884;2023-04-25T03:51:26;8.70;;;8.40;;
20040;SDS011;10181;48.072;9.884;2023-04-25T03:53:52;8.47;;;8.07;;
20040;SDS011;10181;48.072;9.884;2023-04-25T03:56:17;6.93;;;6.63;;
20040;SDS011;10181;48.072;9.884;2023-04-25T03:58:43;7.47;;;7.17;;
20040;SDS011;10181;48.072;9.884;2023-04-25T04:01:09;6.90;;;6.67;;
20040;SDS011;10181;48.072;9.884;2023-04-25T04:03:36;8.40;;;8.10;;
20040;SDS011;10181;48.072;9.884;2023-04-25T04:06:02;7.20;;;6.80;;
20040;SDS011;10181;48.072;9.884;2023-04-25T04:08:31;7.80;;;7.30;;
20040;SDS011;10181;48.072;9.884;2023-04-25T04:10:58;6.43;;;6.03;;
20040;SDS011;10181;48.072;9.884;2023-04-25T04:13:25;4.10;;;3.90;;
20040;SDS011;10181;48.072;9.884;2023-04-25T04:15:51;4.20;;;3.90;;
20040;SDS011;10181;48.072;9.884;2023-04-25T04:18:17;4.33;;;4.03;;
20040;SDS011;10181;48.072;9.884;2023-04-25T04:20:43;4.10;;;3.90;;
20040;SDS011;10181;48.072;9.884;2023-04-25T04:23:08;7.50;;;7.20;;
20040;SDS011;10181;48.072;9.884;2023-04-25T04:25:34;15.03;;;14.33;;
20040;SDS011;10181;48.072;9.884;2023-04-25T04:28:00;18.70;;;18.10;;
20040;SDS011;10181;48.072;9.884;2023-04-25T04:30:26;19.50;;;18.70;;
20040;SDS011;10181;48.072;9.884;2023-04-25T04:32:55;18.30;;;17.47;;
20040;SDS011;10181;48.072;9.884;2023-04-25T04:35:22;19.93;;;19.20;;
20040;SDS011;10181;48.072;9.884;2023-04-25T04:37:48;19.63;;;18.97;;
20040;SDS011;10181;48.072;9.884;2023-04-25T04:40:14;16.43;;;15.57;;
20040;SDS011;10181;48.072;9.884;2023-04-25T04:42:41;13.13;;;12.63;;
20040;SDS011;10181;48.072;9.884;2023-04-25T04:45:07;9.63;;;9.13;;
20040;SDS011;10181;48.072;9.884;2023-04-25T04:47:33;11.47;;;11.00;;
20040;SDS011;10181;48.072;9.884;2023-04-25T04:50:01;13.77;;;13.23;;
20040;SDS011;10181;48.072;9.884;2023-04-25T04:52:32;19.70;;;18.87;;
20040;SDS011;10181;48.072;9.884;2023-04-25T04:54:57;139.77;;;84.20;;
20040;SDS011;10181;48.072;9.884;2023-04-25T04:57:23;198.83;;;97.97;;
20040;SDS011;10181;48.072;9.884;2023-04-25T04:59:48;191.63;;;95.23;;
20040;SDS011;10181;48.072;9.884;2023-04-25T05:02:15;171.27;;;89.07;;
20040;SDS011;10181;48.072;9.884;2023-04-25T05:04:40;43.80;;;33.80;;
20040;SDS011;10181;48.072;9.884;2023-04-25T05:07:06;53.20;;;37.07;;
20040;SDS011;10181;48.072;9.884;2023-04-25T05:09:32;45.27;;;31.87;;
20040;SDS011;10181;48.072;9.884;2023-04-25T05:11:57;34.77;;;30.40;;
20040;SDS011;10181;48.072;9.884;2023-04-25T05:14:23;35.47;;;31.87;;
20040;SDS011;10181;48.072;9.884;2023-04-25T05:16:48;37.60;;;34.23;;
20040;SDS011;10181;48.072;9.884;2023-04-25T05:19:14;19.20;;;18.00;;
20040;SDS011;10181;48.072;9.884;2023-04-25T05:21:40;24.33;;;22.67;;
20040;SDS011;10181;48.072;9.884;2023-04-25T05:24:05;20.97;;;19.57;;
20040;SDS011;10181;48.072;9.884;2023-04-25T05:26:31;10.07;;;9.57;;
20040;SDS011;10181;48.072;9.884;2023-04-25T05:28:57;6.60;;;6.30;;
20040;SDS011;10181;48.072;9.884;2023-04-25T05:31:23;6.13;;;5.73;;
20040;SDS011;10181;48.072;9.884;2023-04-25T05:33:48;6.07;;;5.67;;
20040;SDS011;10181;48.072;9.884;2023-04-25T05:36:14;4.17;;;3.97;;
20040;SDS011;10181;48.072;9.884;2023-04-25T05:38:39;5.40;;;5.10;;
20040;SDS011;10181;48.072;9.884;2023-04-25T05:41:05;6.07;;;5.77;;
20040;SDS011;10181;48.072;9.884;2023-04-25T05:43:31;6.10;;;5.60;;
20040;SDS011;10181;48.072;9.884;2023-04-25T05:45:56;6.73;;;6.10;;
20040;SDS011;10181;48.072;9.884;2023-04-25T05:48:22;8.13;;;7.73;;
20040;SDS011;10181;48.072;9.884;2023-04-25T05:50:47;8.17;;;7.87;;
20040;SDS011;10181;48.072;9.884;2023-04-25T05:53:13;10.03;;;9.53;;
20040;SDS011;10181;48.072;9.884;2023-04-25T05:55:39;10.13;;;9.63;;
20040;SDS011;10181;48.072;9.884;2023-04-25T05:58:05;10.70;;;10.03;;
20040;SDS011;10181;48.072;9.884;2023-04-25T06:00:32;11.80;;;10.93;;
20040;SDS011;10181;48.072;9.884;2023-04-25T06:02:57;10.97;;;10.57;;
20040;SDS011;10181;48.072;9.884;2023-04-25T06:05:23;11.10;;;10.27;;
20040;SDS011;10181;48.072;9.884;2023-04-25T06:07:48;10.13;;;9.63;;
20040;SDS011;10181;48.072;9.884;2023-04-25T06:10:14;10.47;;;9.90;;
20040;SDS011;10181;48.072;9.884;2023-04-25T06:12:40;9.30;;;8.90;;
20040;SDS011;10181;48.072;9.884;2023-04-25T06:15:06;8.03;;;7.63;;
20040;SDS011;10181;48.072;9.884;2023-04-25T06:17:32;10.47;;;9.87;;
20040;SDS011;10181;48.072;9.884;2023-04-25T06:19:58;9.47;;;9.07;;
20040;SDS011;10181;48.072;9.884;2023-04-25T06:22:23;10.87;;;10.10;;
20040;SDS011;10181;48.072;9.884;2023-04-25T06:24:49;10.73;;;10.33;;
20040;SDS011;10181;48.072;9.884;2023-04-25T06:27:14;8.23;;;7.80;;
20040;SDS011;10181;48.072;9.884;2023-04-25T06:29:40;6.57;;;6.17;;
20040;SDS011;10181;48.072;9.884;2023-04-25T06:32:06;6.13;;;5.83;;
20040;SDS011;10181;48.072;9.884;2023-04-25T06:34:31;4.30;;;4.00;;
20040;SDS011;10181;48.072;9.884;2023-04-25T06:36:57;4.00;;;3.70;;
20040;SDS011;10181;48.072;9.884;2023-04-25T06:39:22;4.10;;;3.70;;
20040;SDS011;10181;48.072;9.884;2023-04-25T06:41:49;3.20;;;2.93;;
20040;SDS011;10181;48.072;9.884;2023-04-25T06:44:15;3.00;;;2.80;;
20040;SDS011;10181;48.072;9.884;2023-04-25T06:46:40;3.23;;;2.77;;
20040;SDS011;10181;48.072;9.884;2023-04-25T06:49:06;2.67;;;2.47;;
20040;SDS011;10181;48.072;9.884;2023-04-25T06:51:32;2.40;;;2.17;;
20040;SDS011;10181;48.072;9.884;2023-04-25T06:53:57;2.43;;;2.27;;
20040;SDS011;10181;48.072;9.884;2023-04-25T06:56:23;2.63;;;2.43;;
20040;SDS011;10181;48.072;9.884;2023-04-25T06:58:49;4.27;;;2.30;;
20040;SDS011;10181;48.072;9.884;2023-04-25T07:01:15;2.40;;;2.20;;
20040;SDS011;10181;48.072;9.884;2023-04-25T07:03:40;2.07;;;2.00;;
20040;SDS011;10181;48.072;9.884;2023-04-25T07:06:06;2.93;;;2.60;;
20040;SDS011;10181;48.072;9.884;2023-04-25T07:22:00;14.37;;;13.57;;
20040;SDS011;10181;48.072;9.884;2023-04-25T07:24:25;52.77;;;50.67;;
20040;SDS011;10181;48.072;9.884;2023-04-25T07:26:51;47.23;;;45.37;;
20040;SDS011;10181;48.072;9.884;2023-04-25T07:29:17;50.87;;;48.77;;
20040;SDS011;10181;48.072;9.884;2023-04-25T07:31:42;29.87;;;28.77;;
20040;SDS011;10181;48.072;9.884;2023-04-25T07:34:08;92.47;;;88.87;;
20040;SDS011;10181;48.072;9.884;2023-04-25T07:36:33;104.80;;;100.87;;
20040;SDS011;10181;48.072;9.884;2023-04-25T07:38:59;29.43;;;28.33;;
20040;SDS011;10181;48.072;9.884;2023-04-25T07:41:25;23.60;;;22.70;;
20040;SDS011;10181;48.072;9.884;2023-04-25T07:43:50;33.60;;;32.23;;
20040;SDS011;10181;48.072;9.884;2023-04-25T07:46:16;14.27;;;13.57;;
20040;SDS011;10181;48.072;9.884;2023-04-25T07:48:41;99.57;;;95.53;;
20040;SDS011;10181;48.072;9.884;2023-04-25T07:51:07;36.90;;;35.47;;
20040;SDS011;10181;48.072;9.884;2023-04-25T07:53:32;56.47;;;54.20;;
20040;SDS011;10181;48.072;9.884;2023-04-25T07:55:59;19.93;;;18.83;;
20040;SDS011;10181;48.072;9.884;2023-04-25T07:58:25;13.13;;;12.63;;
20040;SDS011;10181;48.072;9.884;2023-04-25T08:00:51;16.40;;;15.77;;
20040;SDS011;10181;48.072;9.884;2023-04-25T08:03:16;18.10;;;17.30;;
20040;SDS011;10181;48.072;9.884;2023-04-25T08:05:42;16.00;;;15.20;;
20040;SDS011;10181;48.072;9.884;2023-04-25T08:08:07;9.63;;;9.20;;
20040;SDS011;10181;48.072;9.884;2023-04-25T08:10:33;19.20;;;18.50;;
20040;SDS011;10181;48.072;9.884;2023-04-25T08:12:59;41.37;;;39.80;;
20040;SDS011;10181;48.072;9.884;2023-04-25T08:15:25;49.40;;;47.27;;
20040;SDS011;10181;48.072;9.884;2023-04-25T08:17:51;15.93;;;15.33;;
20040;SDS011;10181;48.072;9.884;2023-04-25T08:20:16;15.30;;;14.70;;
20040;SDS011;10181;48.072;9.884;2023-04-25T08:22:42;17.33;;;16.63;;
20040;SDS011;10181;48.072;9.884;2023-04-25T08:25:08;17.20;;;16.60;;
20040;SDS011;10181;48.072;9.884;2023-04-25T08:27:34;17.83;;;17.23;;
20040;SDS011;10181;48.072;9.884;2023-04-25T08:30:00;20.53;;;19.67;;
20040;SDS011;10181;48.072;9.884;2023-04-25T08:32:29;23.30;;;22.43;;
20040;SDS011;10181;48.072;9.884;2023-04-25T08:34:55;24.43;;;23.50;;
20040;SDS011;10181;48.072;9.884;2023-04-25T08:37:20;13.93;;;13.43;;
20040;SDS011;10181;48.072;9.884;2023-04-25T08:39:46;9.80;;;9.33;;
20040;SDS011;10181;48.072;9.884;2023-04-25T08:42:13;7.70;;;7.33;;
20040;SDS011;10181;48.072;9.884;2023-04-25T08:44:40;11.43;;;11.03;;
20040;SDS011;10181;48.072;9.884;2023-04-25T08:47:06;10.47;;;9.97;;
20040;SDS011;10181;48.072;9.884;2023-04-25T08:49:32;10.70;;;10.20;;
20040;SDS011;10181;48.072;9.884;2023-04-25T08:51:59;14.57;;;14.07;;
20040;SDS011;10181;48.072;9.884;2023-04-25T08:54:29;6.87;;;6.37;;
20040;SDS011;10181;48.072;9.884;2023-04-25T08:56:56;14.37;;;13.77;;
20040;SDS011;10181;48.072;9.884;2023-04-25T08:59:26;18.40;;;17.73;;
20040;SDS011;10181;48.072;9.884;2023-04-25T09:01:53;13.07;;;12.67;;
20040;SDS011;10181;48.072;9.884;2023-04-25T09:04:18;15.83;;;15.23;;
20040;SDS011;10181;48.072;9.884;2023-04-25T09:06:45;30.33;;;29.23;;
20040;SDS011;10181;48.072;9.884;2023-04-25T09:09:11;96.97;;;93.33;;
20040;SDS011;10181;48.072;9.884;2023-04-25T09:11:37;45.17;;;43.37;;
20040;SDS011;10181;48.072;9.884;2023-04-25T09:14:19;21.83;;;21.10;;
20040;SDS011;10181;48.072;9.884;2023-04-25T09:19:21;3.13;;;2.20;;
20040;SDS011;10181;48.072;9.884;2023-04-25T09:21:58;2.13;;;2.03;;
20040;SDS011;10181;48.072;9.884;2023-04-25T09:24:41;3.60;;;3.30;;
20040;SDS011;10181;48.072;9.884;2023-04-25T09:27:09;3.30;;;3.20;;
20040;SDS011;10181;48.072;9.884;2023-04-25T09:29:37;4.17;;;3.87;;
20040;SDS011;10181;48.072;9.884;2023-04-25T09:34:46;4.27;;;4.07;;
20040;SDS011;10181;48.072;9.884;2023-04-25T09:37:28;3.57;;;3.23;;
20040;SDS011;10181;48.072;9.884;2023-04-25T09:39:58;3.60;;;3.47;;
20040;SDS011;10181;48.072;9.884;2023-04-25T09:42:28;2.13;;;2.13;;
20040;SDS011;10181;48.072;9.884;2023-04-25T09:44:56;3.27;;;3.17;;
20040;SDS011;10181;48.072;9.884;2023-04-25T09:47:24;2.80;;;2.70;;
20040;SDS011;10181;48.072;9.884;2023-04-25T09:49:51;2.80;;;2.70;;
20040;SDS011;10181;48.072;9.884;2023-04-25T09:52:21;2.53;;;2.43;;
20040;SDS011;10181;48.072;9.884;2023-04-25T09:54:49;2.70;;;2.60;;
20040;SDS011;10181;48.072;9.884;2023-04-25T09:57:19;2.07;;;2.07;;
20040;SDS011;10181;48.072;9.884;2023-04-25T09:59:48;2.20;;;2.10;;
20040;SDS011;10181;48.072;9.884;2023-04-25T10:02:14;1.80;;;1.80;;
20040;SDS011;10181;48.072;9.884;2023-04-25T10:04:42;1.03;;;1.03;;
20040;SDS011;10181;48.072;9.884;2023-04-25T10:07:10;0.73;;;0.73;;
20040;SDS011;10181;48.072;9.884;2023-04-25T10:09:37;0.80;;;0.80;;
20040;SDS011;10181;48.072;9.884;2023-04-25T10:12:05;0.67;;;0.67;;
20040;SDS011;10181;48.072;9.884;2023-04-25T10:14:32;0.67;;;0.67;;
20040;SDS011;10181;48.072;9.884;2023-04-25T10:16:58;1.27;;;1.27;;
20040;SDS011;10181;48.072;9.884;2023-04-25T10:19:25;1.00;;;1.00;;
20040;SDS011;10181;48.072;9.884;2023-04-25T10:21:52;1.67;;;1.57;;
20040;SDS011;10181;48.072;9.884;2023-04-25T10:24:30;1.50;;;1.50;;
20040;SDS011;10181;48.072;9.884;2023-04-25T10:26:56;1.30;;;1.30;;
20040;SDS011;10181;48.072;9.884;2023-04-25T10:29:25;1.50;;;1.50;;
20040;SDS011;10181;48.072;9.884;2023-04-25T10:31:51;1.40;;;1.40;;
20040;SDS011;10181;48.072;9.884;2023-04-25T10:34:17;1.27;;;1.27;;
20040;SDS011;10181;48.072;9.884;2023-04-25T10:36:53;1.00;;;1.00;;
20040;SDS011;10181;48.072;9.884;2023-04-25T10:39:22;1.20;;;1.20;;
20040;SDS011;10181;48.072;9.884;2023-04-25T10:41:53;1.30;;;1.30;;
20040;SDS011;10181;48.072;9.884;2023-04-25T10:44:21;2.30;;;1.10;;
20040;SDS011;10181;48.072;9.884;2023-04-25T10:46:47;1.30;;;1.30;;
20040;SDS011;10181;48.072;9.884;2023-04-25T10:52:16;1.40;;;1.40;;
20040;SDS011;10181;48.072;9.884;2023-04-25T10:54:51;1.87;;;1.77;;
20040;SDS011;10181;48.072;9.884;2023-04-25T11:02:55;1.37;;;1.37;;
20040;SDS011;10181;48.072;9.884;2023-04-25T11:05:31;1.30;;;1.27;;
20040;SDS011;10181;48.072;9.884;2023-04-25T11:07:58;1.20;;;1.20;;
20040;SDS011;10181;48.072;9.884;2023-04-25T11:10:28;1.57;;;1.57;;
20040;SDS011;10181;48.072;9.884;2023-04-25T11:12:55;1.37;;;1.37;;
20040;SDS011;10181;48.072;9.884;2023-04-25T11:15:21;1.87;;;1.80;;
20040;SDS011;10181;48.072;9.884;2023-04-25T11:17:47;1.40;;;1.40;;
20040;SDS011;10181;48.072;9.884;2023-04-25T11:20:13;2.47;;;1.63;;
20040;SDS011;10181;48.072;9.884;2023-04-25T11:22:40;2.60;;;2.50;;
20040;SDS011;10181;48.072;9.884;2023-04-25T11:25:09;3.17;;;3.07;;
20040;SDS011;10181;48.072;9.884;2023-04-25T11:28:20;2.73;;;2.63;;
20040;SDS011;10181;48.072;9.884;2023-04-25T11:30:26;3.07;;;2.97;;
20040;SDS011;10181;48.072;9.884;2023-04-25T11:32:52;3.50;;;3.40;;
20040;SDS011;10181;48.072;9.884;2023-04-25T11:35:18;3.90;;;3.73;;
20040;SDS011;10181;48.072;9.884;2023-04-25T11:37:45;3.50;;;3.20;;
20040;SDS011;10181;48.072;9.884;2023-04-25T11:40:11;2.90;;;2.80;;
20040;SDS011;10181;48.072;9.884;2023-04-25T11:42:37;2.77;;;2.57;;
20040;SDS011;10181;48.072;9.884;2023-04-25T11:45:04;2.10;;;2.00;;
20040;SDS011;10181;48.072;9.884;2023-04-25T11:47:31;2.30;;;2.20;;
20040;SDS011;10181;48.072;9.884;2023-04-25T11:49:58;2.70;;;2.60;;
20040;SDS011;10181;48.072;9.884;2023-04-25T11:52:25;3.17;;;2.97;;
20040;SDS011;10181;48.072;9.884;2023-04-25T11:55:00;2.93;;;2.83;;
20040;SDS011;10181;48.072;9.884;2023-04-25T11:57:31;3.33;;;2.50;;
20040;SDS011;10181;48.072;9.884;2023-04-25T12:00:04;3.03;;;2.93;;
20040;SDS011;10181;48.072;9.884;2023-04-25T12:02:31;3.37;;;3.27;;
20040;SDS011;10181;48.072;9.884;2023-04-25T12:04:59;3.07;;;2.97;;
20040;SDS011;10181;48.072;9.884;2023-04-25T12:07:31;3.00;;;2.77;;
20040;SDS011;10181;48.072;9.884;2023-04-25T12:09:56;2.87;;;2.77;;
20040;SDS011;10181;48.072;9.884;2023-04-25T12:12:26;3.10;;;3.00;;
20040;SDS011;10181;48.072;9.884;2023-04-25T12:14:52;2.90;;;2.80;;
20040;SDS011;10181;48.072;9.884;2023-04-25T12:17:20;3.10;;;3.00;;
20040;SDS011;10181;48.072;9.884;2023-04-25T12:19:47;2.73;;;2.63;;
20040;SDS011;10181;48.072;9.884;2023-04-25T12:22:23;3.10;;;2.90;;
20040;SDS011;10181;48.072;9.884;2023-04-25T12:24:49;2.80;;;2.73;;
20040;SDS011;10181;48.072;9.884;2023-04-25T12:27:15;2.30;;;2.30;;
20040;SDS011;10181;48.072;9.884;2023-04-25T12:29:50;1.90;;;1.90;;
20040;SDS011;10181;48.072;9.884;2023-04-25T12:32:17;1.60;;;1.60;;
20040;SDS011;10181;48.072;9.884;2023-04-25T12:34:42;1.40;;;1.40;;
20040;SDS011;10181;48.072;9.884;2023-04-25T12:37:08;1.30;;;1.30;;
20040;SDS011;10181;48.072;9.884;2023-04-25T12:39:34;1.37;;;1.37;;
20040;SDS011;10181;48.072;9.884;2023-04-25T12:42:00;1.93;;;1.93;;
20040;SDS011;10181;48.072;9.884;2023-04-25T12:44:26;2.03;;;2.03;;
20040;SDS011;10181;48.072;9.884;2023-04-25T12:46:52;2.13;;;2.13;;
20040;SDS011;10181;48.072;9.884;2023-04-25T12:49:17;1.50;;;1.50;;
20040;SDS011;10181;48.072;9.884;2023-04-25T12:51:43;1.53;;;1.53;;
20040;SDS011;10181;48.072;9.884;2023-04-25T12:54:09;1.40;;;1.40;;
20040;SDS011;10181;48.072;9.884;2023-04-25T12:56:35;1.37;;;1.37;;
20040;SDS011;10181;48.072;9.884;2023-04-25T12:59:01;1.20;;;1.20;;
20040;SDS011;10181;48.072;9.884;2023-04-25T13:01:28;1.07;;;1.07;;
20040;SDS011;10181;48.072;9.884;2023-04-25T13:03:54;1.30;;;1.30;;
20040;SDS011;10181;48.072;9.884;2023-04-25T13:06:20;1.67;;;1.67;;
20040;SDS011;10181;48.072;9.884;2023-04-25T13:08:47;2.30;;;2.30;;
20040;SDS011;10181;48.072;9.884;2023-04-25T13:11:13;2.00;;;2.00;;
20040;SDS011;10181;48.072;9.884;2023-04-25T13:13:42;1.90;;;1.90;;
20040;SDS011;10181;48.072;9.884;2023-04-25T13:16:08;2.33;;;2.23;;
20040;SDS011;10181;48.072;9.884;2023-04-25T13:18:33;2.43;;;2.43;;
20040;SDS011;10181;48.072;9.884;2023-04-25T13:20:59;2.70;;;2.70;;
20040;SDS011;10181;48.072;9.884;2023-04-25T13:23:26;2.13;;;2.13;;
20040;SDS011;10181;48.072;9.884;2023-04-25T13:25:53;1.93;;;1.93;;
20040;SDS011;10181;48.072;9.884;2023-04-25T13:28:20;2.17;;;2.17;;
20040;SDS011;10181;48.072;9.884;2023-04-25T13:30:46;2.13;;;2.13;;
20040;SDS011;10181;48.072;9.884;2023-04-25T13:33:12;1.87;;;1.87;;
20040;SDS011;10181;48.072;9.884;2023-04-25T13:35:39;2.13;;;2.13;;
20040;SDS011;10181;48.072;9.884;2023-04-25T13:38:04;1.80;;;1.80;;
20040;SDS011;10181;48.072;9.884;2023-04-25T13:40:30;1.70;;;1.70;;
20040;SDS011;10181;48.072;9.884;2023-04-25T13:42:57;1.57;;;1.57;;
20040;SDS011;10181;48.072;9.884;2023-04-25T13:45:22;1.40;;;1.40;;
20040;SDS011;10181;48.072;9.884;2023-04-25T13:47:48;1.50;;;1.50;;
20040;SDS011;10181;48.072;9.884;2023-04-25T13:50:14;2.03;;;2.03;;
20040;SDS011;10181;48.072;9.884;2023-04-25T13:52:41;1.30;;;1.30;;
20040;SDS011;10181;48.072;9.884;2023-04-25T13:55:07;1.23;;;1.23;;
20040;SDS011;10181;48.072;9.884;2023-04-25T13:57:33;1.50;;;1.50;;
20040;SDS011;10181;48.072;9.884;2023-04-25T13:59:59;1.10;;;1.10;;
20040;SDS011;10181;48.072;9.884;2023-04-25T14:02:29;1.33;;;1.33;;
20040;SDS011;10181;48.072;9.884;2023-04-25T14:04:55;1.93;;;1.93;;
20040;SDS011;10181;48.072;9.884;2023-04-25T14:07:21;1.00;;;1.00;;
20040;SDS011;10181;48.072;9.884;2023-04-25T14:09:46;1.13;;;1.13;;
20040;SDS011;10181;48.072;9.884;2023-04-25T14:12:12;1.20;;;1.20;;
20040;SDS011;10181;48.072;9.884;2023-04-25T14:14:37;1.00;;;1.00;;
20040;SDS011;10181;48.072;9.884;2023-04-25T14:17:03;1.03;;;1.03;;
20040;SDS011;10181;48.072;9.884;2023-04-25T14:19:29;0.93;;;0.93;;
20040;SDS011;10181;48.072;9.884;2023-04-25T14:21:55;0.90;;;0.90;;
20040;SDS011;10181;48.072;9.884;2023-04-25T14:24:20;0.73;;;0.73;;
20040;SDS011;10181;48.072;9.884;2023-04-25T14:26:46;1.17;;;1.17;;
20040;SDS011;10181;48.072;9.884;2023-04-25T14:29:12;5.13;;;5.03;;
20040;SDS011;10181;48.072;9.884;2023-04-25T14:31:37;12.10;;;11.77;;
20040;SDS011;10181;48.072;9.884;2023-04-25T14:34:04;19.50;;;18.90;;
20040;SDS011;10181;48.072;9.884;2023-04-25T14:36:30;18.40;;;17.90;;
20040;SDS011;10181;48.072;9.884;2023-04-25T14:38:57;7.10;;;6.93;;
20040;SDS011;10181;48.072;9.884;2023-04-25T14:41:23;3.70;;;3.60;;
20040;SDS011;10181;48.072;9.884;2023-04-25T14:43:49;2.30;;;2.30;;
20040;SDS011;10181;48.072;9.884;2023-04-25T14:46:15;7.63;;;7.43;;
20040;SDS011;10181;48.072;9.884;2023-04-25T14:48:41;11.10;;;10.80;;
20040;SDS011;10181;48.072;9.884;2023-04-25T14:51:07;15.90;;;15.43;;
20040;SDS011;10181;48.072;9.884;2023-04-25T14:53:33;12.70;;;12.30;;
20040;SDS011;10181;48.072;9.884;2023-04-25T14:55:59;12.20;;;11.80;;
20040;SDS011;10181;48.072;9.884;2023-04-25T14:58:24;11.33;;;11.03;;
20040;SDS011;10181;48.072;9.884;2023-04-25T15:00:50;12.37;;;11.97;;
20040;SDS011;10181;48.072;9.884;2023-04-25T15:03:16;8.43;;;8.13;;